sensor_id;sensor_type;location;lat;lon;timestamp;temperature;humidity
11511;DHT22;5812;48.864;9.190;2022-10-17T00:01:28;13.00;99.90
11511;DHT22;5812;48.864;9.190;2022-10-17T00:03:54;12.80;99.90
11511;DHT22;5812;48.864;9.190;2022-10-17T00:06:19;12.90;99.90
11511;DHT22;5812;48.864;9.190;2022-10-17T00:08:45;12.80;99.90
11511;DHT22;5812;48.864;9.190;2022-10-17T00:11:16;12.90;99.90
11511;DHT22;5812;48.864;9.190;2022-10-17T00:13:42;12.60;99.90
11511;DHT22;5812;48.864;9.190;2022-10-17T00:16:08;12.70;99.90
11511;DHT22;5812;48.864;9.190;2022-10-17T00:18:34;12.90;99.90
11511;DHT22;5812;48.864;9.190;2022-10-17T00:20:59;13.00;99.90
11511;DHT22;5812;48.864;9.190;2022-10-17T00:23:25;13.00;99.90
11511;DHT22;5812;48.864;9.190;2022-10-17T00:26:00;13.30;99.90
11511;DHT22;5812;48.864;9.190;2022-10-17T00:28:25;13.10;99.90
11511;DHT22;5812;48.864;9.190;2022-10-17T00:31:02;12.90;99.90
11511;DHT22;5812;48.864;9.190;2022-10-17T00:33:29;12.70;99.90
11511;DHT22;5812;48.864;9.190;2022-10-17T00:36:16;12.60;99.90
11511;DHT22;5812;48.864;9.190;2022-10-17T00:38:44;12.50;99.90
11511;DHT22;5812;48.864;9.190;2022-10-17T00:41:12;12.50;99.90
11511;DHT22;5812;48.864;9.190;2022-10-17T00:46:18;12.50;99.90
11511;DHT22;5812;48.864;9.190;2022-10-17T00:48:44;12.50;99.90
11511;DHT22;5812;48.864;9.190;2022-10-17T00:51:11;12.50;99.90
11511;DHT22;5812;48.864;9.190;2022-10-17T00:53:37;12.50;99.90
11511;DHT22;5812;48.864;9.190;2022-10-17T00:56:04;12.50;99.90
11511;DHT22;5812;48.864;9.190;2022-10-17T00:58:29;12.50;99.90
11511;DHT22;5812;48.864;9.190;2022-10-17T01:00:55;12.50;99.90
11511;DHT22;5812;48.864;9.190;2022-10-17T01:03:21;12.40;99.90
11511;DHT22;5812;48.864;9.190;2022-10-17T01:05:46;12.70;99.90
11511;DHT22;5812;48.864;9.190;2022-10-17T01:08:12;12.70;99.90
11511;DHT22;5812;48.864;9.190;2022-10-17T01:13:47;12.60;99.90
11511;DHT22;5812;48.864;9.190;2022-10-17T01:19:19;12.50;99.90
11511;DHT22;5812;48.864;9.190;2022-10-17T01:22:09;12.50;99.90
11511;DHT22;5812;48.864;9.190;2022-10-17T01:25:22;12.40;99.90
11511;DHT22;5812;48.864;9.190;2022-10-17T01:33:31;12.30;99.90
11511;DHT22;5812;48.864;9.190;2022-10-17T01:36:04;12.30;99.90
11511;DHT22;5812;48.864;9.190;2022-10-17T01:38:43;12.30;99.90
11511;DHT22;5812;48.864;9.190;2022-10-17T01:44:08;12.10;99.90
11511;DHT22;5812;48.864;9.190;2022-10-17T01:46:37;12.10;99.90
11511;DHT22;5812;48.864;9.190;2022-10-17T01:49:06;12.10;99.90
11511;DHT22;5812;48.864;9.190;2022-10-17T01:51:42;12.10;99.90
11511;DHT22;5812;48.864;9.190;2022-10-17T01:54:36;12.10;99.90
11511;DHT22;5812;48.864;9.190;2022-10-17T01:57:07;12.00;99.90
11511;DHT22;5812;48.864;9.190;2022-10-17T01:59:42;11.90;99.90
11511;DHT22;5812;48.864;9.190;2022-10-17T02:02:10;11.90;99.90
11511;DHT22;5812;48.864;9.190;2022-10-17T02:04:39;11.80;99.90
11511;DHT22;5812;48.864;9.190;2022-10-17T02:07:09;11.70;99.90
11511;DHT22;5812;48.864;9.190;2022-10-17T02:09:36;11.70;99.90
11511;DHT22;5812;48.864;9.190;2022-10-17T02:20:25;12.00;99.90
11511;DHT22;5812;48.864;9.190;2022-10-17T02:23:00;11.80;99.90
11511;DHT22;5812;48.864;9.190;2022-10-17T02:25:40;11.90;99.90
11511;DHT22;5812;48.864;9.190;2022-10-17T02:28:20;11.90;99.90
11511;DHT22;5812;48.864;9.190;2022-10-17T02:31:08;12.00;99.90
11511;DHT22;5812;48.864;9.190;2022-10-17T02:34:06;12.20;99.90
11511;DHT22;5812;48.864;9.190;2022-10-17T02:36:38;12.00;99.90
11511;DHT22;5812;48.864;9.190;2022-10-17T02:39:05;11.80;99.90
11511;DHT22;5812;48.864;9.190;2022-10-17T02:41:32;11.80;99.90
11511;DHT22;5812;48.864;9.190;2022-10-17T02:44:01;12.00;99.90
11511;DHT22;5812;48.864;9.190;2022-10-17T02:46:28;12.00;99.90
11511;DHT22;5812;48.864;9.190;2022-10-17T02:51:45;11.60;99.90
11511;DHT22;5812;48.864;9.190;2022-10-17T02:57:01;11.60;99.90
11511;DHT22;5812;48.864;9.190;2022-10-17T02:59:33;11.60;99.90
11511;DHT22;5812;48.864;9.190;2022-10-17T03:02:03;11.60;99.90
11511;DHT22;5812;48.864;9.190;2022-10-17T03:04:29;11.50;99.90
11511;DHT22;5812;48.864;9.190;2022-10-17T03:06:54;11.50;99.90
11511;DHT22;5812;48.864;9.190;2022-10-17T03:09:20;11.60;99.90
11511;DHT22;5812;48.864;9.190;2022-10-17T03:11:45;11.70;99.90
11511;DHT22;5812;48.864;9.190;2022-10-17T03:14:11;11.50;99.90
11511;DHT22;5812;48.864;9.190;2022-10-17T03:16:37;11.40;99.90
11511;DHT22;5812;48.864;9.190;2022-10-17T03:19:02;11.60;99.90
11511;DHT22;5812;48.864;9.190;2022-10-17T03:21:28;11.40;99.90
11511;DHT22;5812;48.864;9.190;2022-10-17T03:23:54;11.40;99.90
11511;DHT22;5812;48.864;9.190;2022-10-17T03:26:19;11.20;99.90
11511;DHT22;5812;48.864;9.190;2022-10-17T03:28:45;11.20;99.90
11511;DHT22;5812;48.864;9.190;2022-10-17T03:31:14;11.30;99.90
11511;DHT22;5812;48.864;9.190;2022-10-17T03:33:39;11.30;99.90
11511;DHT22;5812;48.864;9.190;2022-10-17T03:36:07;11.30;99.90
11511;DHT22;5812;48.864;9.190;2022-10-17T03:38:33;11.50;99.90
11511;DHT22;5812;48.864;9.190;2022-10-17T03:40:59;11.40;99.90
11511;DHT22;5812;48.864;9.190;2022-10-17T03:43:25;11.90;99.90
11511;DHT22;5812;48.864;9.190;2022-10-17T03:45:50;11.30;99.90
11511;DHT22;5812;48.864;9.190;2022-10-17T03:48:16;11.40;99.90
11511;DHT22;5812;48.864;9.190;2022-10-17T03:50:41;11.30;99.90
11511;DHT22;5812;48.864;9.190;2022-10-17T03:53:07;11.70;99.90
11511;DHT22;5812;48.864;9.190;2022-10-17T03:55:32;11.60;99.90
11511;DHT22;5812;48.864;9.190;2022-10-17T03:57:58;12.00;99.90
11511;DHT22;5812;48.864;9.190;2022-10-17T04:00:24;11.70;99.90
11511;DHT22;5812;48.864;9.190;2022-10-17T04:02:49;11.60;99.90
11511;DHT22;5812;48.864;9.190;2022-10-17T04:05:15;11.60;99.90
11511;DHT22;5812;48.864;9.190;2022-10-17T04:07:41;11.50;99.90
11511;DHT22;5812;48.864;9.190;2022-10-17T04:10:06;11.60;99.90
11511;DHT22;5812;48.864;9.190;2022-10-17T04:12:32;11.60;99.90
11511;DHT22;5812;48.864;9.190;2022-10-17T04:14:58;12.10;99.90
11511;DHT22;5812;48.864;9.190;2022-10-17T04:17:23;11.60;99.90
11511;DHT22;5812;48.864;9.190;2022-10-17T04:19:49;11.60;99.90
11511;DHT22;5812;48.864;9.190;2022-10-17T04:22:15;11.70;99.90
11511;DHT22;5812;48.864;9.190;2022-10-17T04:24:40;11.60;99.90
11511;DHT22;5812;48.864;9.190;2022-10-17T04:27:06;11.50;99.90
11511;DHT22;5812;48.864;9.190;2022-10-17T04:29:31;11.40;99.90
11511;DHT22;5812;48.864;9.190;2022-10-17T04:31:57;11.50;99.90
11511;DHT22;5812;48.864;9.190;2022-10-17T04:34:23;11.70;99.90
11511;DHT22;5812;48.864;9.190;2022-10-17T04:36:48;11.60;99.90
11511;DHT22;5812;48.864;9.190;2022-10-17T04:39:16;12.10;99.90
11511;DHT22;5812;48.864;9.190;2022-10-17T04:41:41;12.20;99.90
11511;DHT22;5812;48.864;9.190;2022-10-17T04:44:08;12.50;99.90
11511;DHT22;5812;48.864;9.190;2022-10-17T04:46:34;12.70;99.90
11511;DHT22;5812;48.864;9.190;2022-10-17T04:49:00;13.20;99.90
11511;DHT22;5812;48.864;9.190;2022-10-17T04:51:25;13.20;99.90
11511;DHT22;5812;48.864;9.190;2022-10-17T04:53:51;12.60;99.90
11511;DHT22;5812;48.864;9.190;2022-10-17T04:56:19;12.60;99.90
11511;DHT22;5812;48.864;9.190;2022-10-17T04:58:45;12.50;99.90
11511;DHT22;5812;48.864;9.190;2022-10-17T05:01:13;13.20;99.90
11511;DHT22;5812;48.864;9.190;2022-10-17T05:03:39;12.40;99.90
11511;DHT22;5812;48.864;9.190;2022-10-17T05:06:07;12.20;99.90
11511;DHT22;5812;48.864;9.190;2022-10-17T05:08:33;12.20;99.90
11511;DHT22;5812;48.864;9.190;2022-10-17T05:10:59;12.20;99.90
11511;DHT22;5812;48.864;9.190;2022-10-17T05:13:24;12.10;99.90
11511;DHT22;5812;48.864;9.190;2022-10-17T05:15:50;12.20;99.90
11511;DHT22;5812;48.864;9.190;2022-10-17T05:18:15;12.00;99.90
11511;DHT22;5812;48.864;9.190;2022-10-17T05:20:41;12.00;99.90
11511;DHT22;5812;48.864;9.190;2022-10-17T05:23:07;12.10;99.90
11511;DHT22;5812;48.864;9.190;2022-10-17T05:25:32;12.20;99.90
11511;DHT22;5812;48.864;9.190;2022-10-17T05:27:58;12.20;99.90
11511;DHT22;5812;48.864;9.190;2022-10-17T05:30:24;12.20;99.90
11511;DHT22;5812;48.864;9.190;2022-10-17T05:32:54;12.10;99.90
11511;DHT22;5812;48.864;9.190;2022-10-17T05:35:20;12.20;99.90
11511;DHT22;5812;48.864;9.190;2022-10-17T05:37:46;12.10;99.90
11511;DHT22;5812;48.864;9.190;2022-10-17T05:40:12;12.00;99.90
11511;DHT22;5812;48.864;9.190;2022-10-17T05:42:38;11.90;99.90
11511;DHT22;5812;48.864;9.190;2022-10-17T05:45:04;11.90;99.90
11511;DHT22;5812;48.864;9.190;2022-10-17T05:47:30;11.80;99.90
11511;DHT22;5812;48.864;9.190;2022-10-17T05:49:55;11.90;99.90
11511;DHT22;5812;48.864;9.190;2022-10-17T05:52:21;11.90;99.90
11511;DHT22;5812;48.864;9.190;2022-10-17T05:54:47;13.30;99.90
11511;DHT22;5812;48.864;9.190;2022-10-17T05:57:12;11.80;99.90
11511;DHT22;5812;48.864;9.190;2022-10-17T05:59:38;11.80;99.90
11511;DHT22;5812;48.864;9.190;2022-10-17T06:02:03;11.80;99.90
11511;DHT22;5812;48.864;9.190;2022-10-17T06:04:29;11.80;99.90
11511;DHT22;5812;48.864;9.190;2022-10-17T06:06:55;11.80;99.90
11511;DHT22;5812;48.864;9.190;2022-10-17T06:09:21;11.90;99.90
11511;DHT22;5812;48.864;9.190;2022-10-17T06:11:47;11.90;99.90
11511;DHT22;5812;48.864;9.190;2022-10-17T06:14:12;11.90;99.90
11511;DHT22;5812;48.864;9.190;2022-10-17T06:16:38;11.90;99.90
11511;DHT22;5812;48.864;9.190;2022-10-17T06:19:03;12.10;99.90
11511;DHT22;5812;48.864;9.190;2022-10-17T06:21:29;12.00;99.90
11511;DHT22;5812;48.864;9.190;2022-10-17T06:23:58;12.00;99.90
11511;DHT22;5812;48.864;9.190;2022-10-17T06:26:24;12.10;99.90
11511;DHT22;5812;48.864;9.190;2022-10-17T06:28:49;12.10;99.90
11511;DHT22;5812;48.864;9.190;2022-10-17T06:31:15;12.40;99.90
11511;DHT22;5812;48.864;9.190;2022-10-17T06:33:41;12.60;99.90
11511;DHT22;5812;48.864;9.190;2022-10-17T06:36:10;12.00;99.90
11511;DHT22;5812;48.864;9.190;2022-10-17T06:38:37;12.10;99.90
11511;DHT22;5812;48.864;9.190;2022-10-17T06:41:08;12.10;99.90
11511;DHT22;5812;48.864;9.190;2022-10-17T06:43:35;12.10;99.90
11511;DHT22;5812;48.864;9.190;2022-10-17T06:46:01;12.10;99.90
11511;DHT22;5812;48.864;9.190;2022-10-17T06:48:27;12.10;99.90
11511;DHT22;5812;48.864;9.190;2022-10-17T06:50:53;12.30;99.90
11511;DHT22;5812;48.864;9.190;2022-10-17T06:53:22;12.50;99.90
11511;DHT22;5812;48.864;9.190;2022-10-17T06:55:52;12.70;99.90
11511;DHT22;5812;48.864;9.190;2022-10-17T06:58:19;12.90;99.90
11511;DHT22;5812;48.864;9.190;2022-10-17T07:00:45;12.80;99.90
11511;DHT22;5812;48.864;9.190;2022-10-17T07:03:10;12.90;99.90
11511;DHT22;5812;48.864;9.190;2022-10-17T07:05:36;13.10;99.90
11511;DHT22;5812;48.864;9.190;2022-10-17T07:08:04;13.30;99.90
11511;DHT22;5812;48.864;9.190;2022-10-17T07:10:29;13.60;99.90
11511;DHT22;5812;48.864;9.190;2022-10-17T07:12:55;13.70;99.90
11511;DHT22;5812;48.864;9.190;2022-10-17T07:15:21;13.80;99.90
11511;DHT22;5812;48.864;9.190;2022-10-17T07:17:49;14.10;99.90
11511;DHT22;5812;48.864;9.190;2022-10-17T07:20:15;15.80;99.90
11511;DHT22;5812;48.864;9.190;2022-10-17T07:22:41;14.60;99.90
11511;DHT22;5812;48.864;9.190;2022-10-17T07:25:07;15.00;99.90
11511;DHT22;5812;48.864;9.190;2022-10-17T07:27:33;14.60;99.90
11511;DHT22;5812;48.864;9.190;2022-10-17T07:29:58;14.90;99.90
11511;DHT22;5812;48.864;9.190;2022-10-17T07:32:24;15.20;99.90
11511;DHT22;5812;48.864;9.190;2022-10-17T07:34:49;15.30;99.90
11511;DHT22;5812;48.864;9.190;2022-10-17T07:37:15;15.90;99.90
11511;DHT22;5812;48.864;9.190;2022-10-17T07:39:41;15.50;99.90
11511;DHT22;5812;48.864;9.190;2022-10-17T07:42:06;15.80;99.90
11511;DHT22;5812;48.864;9.190;2022-10-17T07:44:32;16.50;99.90
11511;DHT22;5812;48.864;9.190;2022-10-17T07:46:58;16.30;99.90
11511;DHT22;5812;48.864;9.190;2022-10-17T07:49:23;16.30;99.90
11511;DHT22;5812;48.864;9.190;2022-10-17T07:51:49;16.50;99.90
11511;DHT22;5812;48.864;9.190;2022-10-17T07:54:14;16.50;99.90
11511;DHT22;5812;48.864;9.190;2022-10-17T07:56:40;16.70;99.90
11511;DHT22;5812;48.864;9.190;2022-10-17T07:59:05;16.80;99.90
11511;DHT22;5812;48.864;9.190;2022-10-17T08:01:31;17.10;99.90
11511;DHT22;5812;48.864;9.190;2022-10-17T08:03:56;17.40;95.50
11511;DHT22;5812;48.864;9.190;2022-10-17T08:06:22;17.50;85.70
11511;DHT22;5812;48.864;9.190;2022-10-17T08:08:48;17.60;26.50
11511;DHT22;5812;48.864;9.190;2022-10-17T08:11:14;17.80;1.00
11511;DHT22;5812;48.864;9.190;2022-10-17T08:13:40;17.90;29.30
11511;DHT22;5812;48.864;9.190;2022-10-17T08:16:09;18.30;13.20
11511;DHT22;5812;48.864;9.190;2022-10-17T08:18:37;17.70;1.00
11511;DHT22;5812;48.864;9.190;2022-10-17T08:21:04;18.10;1.00
11511;DHT22;5812;48.864;9.190;2022-10-17T08:23:33;18.40;1.00
11511;DHT22;5812;48.864;9.190;2022-10-17T08:26:00;19.20;99.90
11511;DHT22;5812;48.864;9.190;2022-10-17T08:28:26;18.60;99.90
11511;DHT22;5812;48.864;9.190;2022-10-17T08:30:51;18.60;2.70
11511;DHT22;5812;48.864;9.190;2022-10-17T08:33:17;18.70;1.00
11511;DHT22;5812;48.864;9.190;2022-10-17T08:35:43;18.70;1.00
11511;DHT22;5812;48.864;9.190;2022-10-17T08:38:08;19.20;1.00
11511;DHT22;5812;48.864;9.190;2022-10-17T08:40:34;18.90;99.90
11511;DHT22;5812;48.864;9.190;2022-10-17T08:45:55;19.10;99.90
11511;DHT22;5812;48.864;9.190;2022-10-17T08:48:26;19.80;99.90
11511;DHT22;5812;48.864;9.190;2022-10-17T08:50:59;19.90;99.90
11511;DHT22;5812;48.864;9.190;2022-10-17T08:53:35;19.80;1.00
11511;DHT22;5812;48.864;9.190;2022-10-17T08:56:12;20.00;99.90
11511;DHT22;5812;48.864;9.190;2022-10-17T08:58:38;20.20;99.90
11511;DHT22;5812;48.864;9.190;2022-10-17T09:01:31;19.90;99.90
11511;DHT22;5812;48.864;9.190;2022-10-17T09:04:14;20.10;1.00
11511;DHT22;5812;48.864;9.190;2022-10-17T09:07:05;20.60;99.90
11511;DHT22;5812;48.864;9.190;2022-10-17T09:18:12;20.90;99.90
11511;DHT22;5812;48.864;9.190;2022-10-17T09:20:45;21.20;99.90
11511;DHT22;5812;48.864;9.190;2022-10-17T09:23:24;20.60;99.90
11511;DHT22;5812;48.864;9.190;2022-10-17T09:25:58;20.40;99.90
11511;DHT22;5812;48.864;9.190;2022-10-17T09:28:37;21.30;99.90
11511;DHT22;5812;48.864;9.190;2022-10-17T09:31:25;20.80;1.00
11511;DHT22;5812;48.864;9.190;2022-10-17T09:33:55;20.20;70.40
11511;DHT22;5812;48.864;9.190;2022-10-17T09:36:38;20.50;52.60
11511;DHT22;5812;48.864;9.190;2022-10-17T09:39:13;20.60;16.90
11511;DHT22;5812;48.864;9.190;2022-10-17T09:41:43;20.90;38.90
11511;DHT22;5812;48.864;9.190;2022-10-17T09:44:21;22.10;54.30
11511;DHT22;5812;48.864;9.190;2022-10-17T09:49:34;21.50;99.90
11511;DHT22;5812;48.864;9.190;2022-10-17T09:52:01;21.70;1.00
11511;DHT22;5812;48.864;9.190;2022-10-17T09:57:10;22.40;1.00
11511;DHT22;5812;48.864;9.190;2022-10-17T09:59:38;21.60;1.00
11511;DHT22;5812;48.864;9.190;2022-10-17T10:04:56;22.20;1.00
11511;DHT22;5812;48.864;9.190;2022-10-17T10:07:28;22.40;1.00
11511;DHT22;5812;48.864;9.190;2022-10-17T10:09:54;22.70;1.00
11511;DHT22;5812;48.864;9.190;2022-10-17T10:12:23;22.70;99.90
11511;DHT22;5812;48.864;9.190;2022-10-17T10:14:49;22.80;99.90
11511;DHT22;5812;48.864;9.190;2022-10-17T10:17:47;23.00;1.00
11511;DHT22;5812;48.864;9.190;2022-10-17T10:20:34;23.10;99.90
11511;DHT22;5812;48.864;9.190;2022-10-17T10:23:15;22.90;99.90
11511;DHT22;5812;48.864;9.190;2022-10-17T10:28:37;23.50;1.00
11511;DHT22;5812;48.864;9.190;2022-10-17T10:31:05;23.40;1.00
11511;DHT22;5812;48.864;9.190;2022-10-17T10:33:34;24.10;99.90
11511;DHT22;5812;48.864;9.190;2022-10-17T10:36:04;24.10;99.90
11511;DHT22;5812;48.864;9.190;2022-10-17T10:38:32;24.40;67.00
11511;DHT22;5812;48.864;9.190;2022-10-17T10:41:06;24.80;56.50
11511;DHT22;5812;48.864;9.190;2022-10-17T10:43:37;24.80;27.70
11511;DHT22;5812;48.864;9.190;2022-10-17T10:46:19;24.70;10.20
11511;DHT22;5812;48.864;9.190;2022-10-17T10:48:57;24.60;13.90
11511;DHT22;5812;48.864;9.190;2022-10-17T10:54:03;25.50;1.50
11511;DHT22;5812;48.864;9.190;2022-10-17T10:56:37;26.20;13.50
11511;DHT22;5812;48.864;9.190;2022-10-17T11:01:42;25.40;4.10
11511;DHT22;5812;48.864;9.190;2022-10-17T11:06:51;26.00;1.00
11511;DHT22;5812;48.864;9.190;2022-10-17T11:09:45;26.50;1.00
11511;DHT22;5812;48.864;9.190;2022-10-17T11:21:25;27.40;1.00
11511;DHT22;5812;48.864;9.190;2022-10-17T11:24:12;27.70;1.00
11511;DHT22;5812;48.864;9.190;2022-10-17T11:26:51;28.20;1.00
11511;DHT22;5812;48.864;9.190;2022-10-17T11:29:18;27.80;1.00
11511;DHT22;5812;48.864;9.190;2022-10-17T11:31:47;29.00;1.00
11511;DHT22;5812;48.864;9.190;2022-10-17T11:34:19;29.80;1.00
11511;DHT22;5812;48.864;9.190;2022-10-17T11:36:50;30.90;1.00
11511;DHT22;5812;48.864;9.190;2022-10-17T11:39:43;31.60;1.00
11511;DHT22;5812;48.864;9.190;2022-10-17T11:42:19;31.50;1.00
11511;DHT22;5812;48.864;9.190;2022-10-17T11:44:50;32.10;1.00
11511;DHT22;5812;48.864;9.190;2022-10-17T11:50:19;32.30;1.00
11511;DHT22;5812;48.864;9.190;2022-10-17T11:52:51;32.10;1.00
11511;DHT22;5812;48.864;9.190;2022-10-17T11:55:25;32.10;1.00
11511;DHT22;5812;48.864;9.190;2022-10-17T11:58:00;32.00;1.00
11511;DHT22;5812;48.864;9.190;2022-10-17T12:00:48;31.70;1.00
11511;DHT22;5812;48.864;9.190;2022-10-17T12:03:25;32.40;1.00
11511;DHT22;5812;48.864;9.190;2022-10-17T12:06:07;32.40;1.00
11511;DHT22;5812;48.864;9.190;2022-10-17T12:13:50;31.10;1.00
11511;DHT22;5812;48.864;9.190;2022-10-17T12:18:45;31.30;1.00
11511;DHT22;5812;48.864;9.190;2022-10-17T12:21:12;31.20;1.00
11511;DHT22;5812;48.864;9.190;2022-10-17T12:23:38;31.50;1.00
11511;DHT22;5812;48.864;9.190;2022-10-17T12:26:07;31.30;1.00
11511;DHT22;5812;48.864;9.190;2022-10-17T12:33:46;31.20;1.00
11511;DHT22;5812;48.864;9.190;2022-10-17T12:38:42;31.20;1.00
11511;DHT22;5812;48.864;9.190;2022-10-17T12:41:08;31.00;1.00
11511;DHT22;5812;48.864;9.190;2022-10-17T12:43:54;30.90;1.00
11511;DHT22;5812;48.864;9.190;2022-10-17T12:57:47;31.10;1.00
11511;DHT22;5812;48.864;9.190;2022-10-17T13:00:42;29.50;1.00
11511;DHT22;5812;48.864;9.190;2022-10-17T13:03:23;30.00;1.00
11511;DHT22;5812;48.864;9.190;2022-10-17T13:05:53;29.80;1.00
11511;DHT22;5812;48.864;9.190;2022-10-17T13:08:43;29.40;1.00
11511;DHT22;5812;48.864;9.190;2022-10-17T13:11:09;29.30;1.00
11511;DHT22;5812;48.864;9.190;2022-10-17T13:13:48;28.90;1.00
11511;DHT22;5812;48.864;9.190;2022-10-17T13:16:32;28.20;1.00
11511;DHT22;5812;48.864;9.190;2022-10-17T13:18:59;27.80;1.00
11511;DHT22;5812;48.864;9.190;2022-10-17T13:21:25;28.10;1.00
11511;DHT22;5812;48.864;9.190;2022-10-17T13:23:51;27.30;1.00
11511;DHT22;5812;48.864;9.190;2022-10-17T13:26:23;26.40;1.00
11511;DHT22;5812;48.864;9.190;2022-10-17T13:29:12;25.90;1.00
11511;DHT22;5812;48.864;9.190;2022-10-17T13:31:43;25.60;1.00
11511;DHT22;5812;48.864;9.190;2022-10-17T13:34:17;25.10;1.00
11511;DHT22;5812;48.864;9.190;2022-10-17T13:36:44;24.60;5.00
11511;DHT22;5812;48.864;9.190;2022-10-17T13:39:14;24.30;4.20
11511;DHT22;5812;48.864;9.190;2022-10-17T13:41:41;24.00;18.70
11511;DHT22;5812;48.864;9.190;2022-10-17T13:44:13;23.80;25.80
11511;DHT22;5812;48.864;9.190;2022-10-17T13:46:39;23.70;19.30
11511;DHT22;5812;48.864;9.190;2022-10-17T13:49:32;23.60;18.60
11511;DHT22;5812;48.864;9.190;2022-10-17T13:51:59;23.60;10.60
11511;DHT22;5812;48.864;9.190;2022-10-17T13:57:03;23.50;18.50
11511;DHT22;5812;48.864;9.190;2022-10-17T13:59:39;23.30;38.10
11511;DHT22;5812;48.864;9.190;2022-10-17T14:02:13;23.40;23.70
11511;DHT22;5812;48.864;9.190;2022-10-17T14:04:39;23.30;12.10
11511;DHT22;5812;48.864;9.190;2022-10-17T14:07:11;23.30;43.90
11511;DHT22;5812;48.864;9.190;2022-10-17T14:09:45;23.20;36.00
11511;DHT22;5812;48.864;9.190;2022-10-17T14:12:11;23.10;32.50
11511;DHT22;5812;48.864;9.190;2022-10-17T14:14:38;23.10;45.00
11511;DHT22;5812;48.864;9.190;2022-10-17T14:17:23;22.90;73.90
11511;DHT22;5812;48.864;9.190;2022-10-17T14:20:02;22.90;70.40
11511;DHT22;5812;48.864;9.190;2022-10-17T14:22:32;22.90;60.00
11511;DHT22;5812;48.864;9.190;2022-10-17T14:24:58;22.90;67.20
11511;DHT22;5812;48.864;9.190;2022-10-17T14:29:56;22.80;55.40
11511;DHT22;5812;48.864;9.190;2022-10-17T14:32:27;22.70;94.20
11511;DHT22;5812;48.864;9.190;2022-10-17T14:34:54;22.70;82.50
11511;DHT22;5812;48.864;9.190;2022-10-17T14:37:41;22.80;80.50
11511;DHT22;5812;48.864;9.190;2022-10-17T14:40:19;22.90;51.10
11511;DHT22;5812;48.864;9.190;2022-10-17T14:42:45;22.90;21.60
11511;DHT22;5812;48.864;9.190;2022-10-17T14:45:20;22.90;29.10
11511;DHT22;5812;48.864;9.190;2022-10-17T14:47:50;22.80;65.20
11511;DHT22;5812;48.864;9.190;2022-10-17T14:50:24;22.90;29.20
11511;DHT22;5812;48.864;9.190;2022-10-17T14:55:39;22.70;38.00
11511;DHT22;5812;48.864;9.190;2022-10-17T14:58:21;22.60;54.40
11511;DHT22;5812;48.864;9.190;2022-10-17T15:00:48;22.50;69.20
11511;DHT22;5812;48.864;9.190;2022-10-17T15:03:13;22.40;99.90
11511;DHT22;5812;48.864;9.190;2022-10-17T15:05:39;22.30;99.90
11511;DHT22;5812;48.864;9.190;2022-10-17T15:08:13;22.30;99.90
11511;DHT22;5812;48.864;9.190;2022-10-17T15:10:39;22.10;99.90
11511;DHT22;5812;48.864;9.190;2022-10-17T15:13:07;21.90;99.90
11511;DHT22;5812;48.864;9.190;2022-10-17T15:15:33;21.80;99.90
11511;DHT22;5812;48.864;9.190;2022-10-17T15:17:59;21.80;99.90
11511;DHT22;5812;48.864;9.190;2022-10-17T15:20:25;21.70;99.90
11511;DHT22;5812;48.864;9.190;2022-10-17T15:22:55;21.60;99.90
11511;DHT22;5812;48.864;9.190;2022-10-17T15:25:22;21.60;99.90
11511;DHT22;5812;48.864;9.190;2022-10-17T15:27:47;21.60;99.90
11511;DHT22;5812;48.864;9.190;2022-10-17T15:32:41;21.50;99.90
11511;DHT22;5812;48.864;9.190;2022-10-17T15:35:08;21.40;99.90
11511;DHT22;5812;48.864;9.190;2022-10-17T15:37:33;21.20;7.10
11511;DHT22;5812;48.864;9.190;2022-10-17T15:39:59;21.00;99.90
11511;DHT22;5812;48.864;9.190;2022-10-17T15:42:29;21.00;67.10
11511;DHT22;5812;48.864;9.190;2022-10-17T15:44:55;20.90;1.00
11511;DHT22;5812;48.864;9.190;2022-10-17T15:47:28;21.10;99.90
11511;DHT22;5812;48.864;9.190;2022-10-17T15:49:55;21.10;99.90
11511;DHT22;5812;48.864;9.190;2022-10-17T15:52:21;21.00;99.90
11511;DHT22;5812;48.864;9.190;2022-10-17T15:54:47;20.80;1.00
11511;DHT22;5812;48.864;9.190;2022-10-17T15:57:23;20.80;1.00
11511;DHT22;5812;48.864;9.190;2022-10-17T15:59:50;21.00;99.90
11511;DHT22;5812;48.864;9.190;2022-10-17T16:02:18;21.00;1.00
11511;DHT22;5812;48.864;9.190;2022-10-17T16:04:44;20.90;99.90
11511;DHT22;5812;48.864;9.190;2022-10-17T16:07:10;20.80;99.90
11511;DHT22;5812;48.864;9.190;2022-10-17T16:09:36;20.60;1.00
11511;DHT22;5812;48.864;9.190;2022-10-17T16:12:03;20.40;1.00
11511;DHT22;5812;48.864;9.190;2022-10-17T16:14:29;20.30;99.90
11511;DHT22;5812;48.864;9.190;2022-10-17T16:16:59;20.00;99.90
11511;DHT22;5812;48.864;9.190;2022-10-17T16:19:25;19.80;99.90
11511;DHT22;5812;48.864;9.190;2022-10-17T16:21:56;19.80;1.00
11511;DHT22;5812;48.864;9.190;2022-10-17T16:24:22;19.90;99.90
11511;DHT22;5812;48.864;9.190;2022-10-17T16:26:49;19.90;99.90
11511;DHT22;5812;48.864;9.190;2022-10-17T16:29:14;19.80;99.90
11511;DHT22;5812;48.864;9.190;2022-10-17T16:31:42;19.50;1.00
11511;DHT22;5812;48.864;9.190;2022-10-17T16:34:10;19.40;1.00
11511;DHT22;5812;48.864;9.190;2022-10-17T16:36:38;19.30;1.00
11511;DHT22;5812;48.864;9.190;2022-10-17T16:39:04;19.00;1.00
11511;DHT22;5812;48.864;9.190;2022-10-17T16:41:32;18.90;17.00
11511;DHT22;5812;48.864;9.190;2022-10-17T16:44:00;19.00;1.00
11511;DHT22;5812;48.864;9.190;2022-10-17T16:46:27;19.10;1.00
11511;DHT22;5812;48.864;9.190;2022-10-17T16:48:54;19.10;1.00
11511;DHT22;5812;48.864;9.190;2022-10-17T16:51:20;19.10;1.00
11511;DHT22;5812;48.864;9.190;2022-10-17T16:53:47;18.70;30.80
11511;DHT22;5812;48.864;9.190;2022-10-17T16:56:16;18.10;99.90
11511;DHT22;5812;48.864;9.190;2022-10-17T16:58:43;18.30;98.90
11511;DHT22;5812;48.864;9.190;2022-10-17T17:01:20;18.20;93.30
11511;DHT22;5812;48.864;9.190;2022-10-17T17:03:47;17.90;99.90
11511;DHT22;5812;48.864;9.190;2022-10-17T17:06:18;17.90;99.90
11511;DHT22;5812;48.864;9.190;2022-10-17T17:08:45;18.00;99.90
11511;DHT22;5812;48.864;9.190;2022-10-17T17:11:12;18.10;99.90
11511;DHT22;5812;48.864;9.190;2022-10-17T17:13:38;18.10;99.90
11511;DHT22;5812;48.864;9.190;2022-10-17T17:16:08;17.70;99.90
11511;DHT22;5812;48.864;9.190;2022-10-17T17:18:34;17.40;99.90
11511;DHT22;5812;48.864;9.190;2022-10-17T17:21:02;17.20;99.90
11511;DHT22;5812;48.864;9.190;2022-10-17T17:23:29;17.30;99.90
11511;DHT22;5812;48.864;9.190;2022-10-17T17:25:59;17.40;99.90
11511;DHT22;5812;48.864;9.190;2022-10-17T17:28:26;17.40;99.90
11511;DHT22;5812;48.864;9.190;2022-10-17T17:30:53;17.30;99.90
11511;DHT22;5812;48.864;9.190;2022-10-17T17:33:20;17.40;99.90
11511;DHT22;5812;48.864;9.190;2022-10-17T17:35:45;17.50;99.90
11511;DHT22;5812;48.864;9.190;2022-10-17T17:38:11;17.30;99.90
11511;DHT22;5812;48.864;9.190;2022-10-17T17:40:43;17.10;99.90
11511;DHT22;5812;48.864;9.190;2022-10-17T17:43:09;17.00;99.90
11511;DHT22;5812;48.864;9.190;2022-10-17T17:45:35;17.00;99.90
11511;DHT22;5812;48.864;9.190;2022-10-17T17:48:00;17.30;99.90
11511;DHT22;5812;48.864;9.190;2022-10-17T17:50:26;16.90;99.90
11511;DHT22;5812;48.864;9.190;2022-10-17T17:52:51;16.70;99.90
11511;DHT22;5812;48.864;9.190;2022-10-17T17:55:17;16.50;99.90